Time;durP1;ratioP1;P1;durP2;ratioP2;P2;SDS_P1;SDS_P2;PMS_P1;PMS_P2;Temp;Humidity;BMP_temperature;BMP_pressure;BME280_temperature;BME280_humidity;BME280_pressure;Samples;Min_cycle;Max_cycle;Signal;HPM_P1;HPM_P2
2022/05/07 00:00:41;;;;;;;14.95;13.45;;;11.40;99.90;;;;;;4993303;28;20508;-73
2022/05/07 00:03:07;;;;;;;17.98;14.55;;;11.40;99.90;;;;;;4993501;28;20620;-73
2022/05/07 00:05:33;;;;;;;17.95;14.70;;;11.40;99.90;;;;;;5018075;28;20355;-73
2022/05/07 00:07:59;;;;;;;19.98;14.52;;;11.50;99.90;;;;;;4984582;28;20508;-73
2022/05/07 00:10:24;;;;;;;24.63;17.10;;;11.50;99.90;;;;;;5016867;28;20052;-73
2022/05/07 00:12:50;;;;;;;19.02;16.25;;;11.50;99.90;;;;;;4983609;28;20066;-73
2022/05/07 00:15:16;;;;;;;19.15;17.17;;;11.60;99.90;;;;;;5000087;28;20038;-73
2022/05/07 00:20:26;;;;;;;18.75;16.48;;;11.70;99.90;;;;;;5019784;28;20466;-73
2022/05/07 00:22:52;;;;;;;17.58;15.77;;;11.60;99.90;;;;;;4992846;28;20491;-73
2022/05/07 00:25:18;;;;;;;17.67;15.95;;;11.70;99.90;;;;;;4992841;28;20045;-73
2022/05/07 00:27:43;;;;;;;17.02;14.95;;;11.70;99.90;;;;;;4992717;28;20069;-73
2022/05/07 00:30:09;;;;;;;17.55;15.70;;;11.70;99.90;;;;;;4993740;28;20046;-73
2022/05/07 00:32:35;;;;;;;13.82;12.30;;;11.70;99.90;;;;;;4993914;28;20507;-73
2022/05/07 00:35:01;;;;;;;12.65;11.35;;;11.80;99.90;;;;;;4992757;28;20480;-73
2022/05/07 00:37:26;;;;;;;12.70;11.40;;;11.80;99.90;;;;;;4992416;28;20039;-73
2022/05/07 00:39:52;;;;;;;12.80;11.20;;;11.80;99.90;;;;;;4992355;28;20084;-73
2022/05/07 00:42:18;;;;;;;19.08;12.95;;;11.70;99.90;;;;;;4993965;28;20095;-73
2022/05/07 00:44:44;;;;;;;14.27;12.90;;;11.70;99.90;;;;;;4992337;28;20046;-72
2022/05/07 00:47:24;;;;;;;15.27;13.77;;;11.70;99.90;;;;;;5017166;28;20488;-73
2022/05/07 00:49:53;;;;;;;15.57;13.98;;;11.70;99.90;;;;;;4992388;28;20541;-73
2022/05/07 00:52:18;;;;;;;15.23;13.57;;;11.80;99.90;;;;;;4992589;28;20054;-73
2022/05/07 00:54:46;;;;;;;13.30;10.98;;;11.80;99.90;;;;;;4976330;28;20103;-73
2022/05/07 00:57:13;;;;;;;12.10;10.40;;;11.70;99.90;;;;;;4990880;28;20574;-73
2022/05/07 00:59:40;;;;;;;11.93;10.77;;;11.70;99.90;;;;;;4992075;28;20480;-73
2022/05/07 01:02:06;;;;;;;15.93;11.02;;;11.70;99.90;;;;;;4992169;28;20070;-73
2022/05/07 01:04:31;;;;;;;11.90;10.70;;;11.70;99.90;;;;;;4992103;28;20412;-73
2022/05/07 01:06:58;;;;;;;13.23;11.65;;;11.60;99.90;;;;;;4992191;28;20061;-72
2022/05/07 01:09:24;;;;;;;14.50;11.75;;;11.60;99.90;;;;;;4992448;28;20085;-73
2022/05/07 01:11:51;;;;;;;14.60;12.63;;;11.60;99.90;;;;;;4991861;28;20073;-73
2022/05/07 01:14:17;;;;;;;16.13;14.00;;;11.60;99.90;;;;;;4992100;28;20054;-73
2022/05/07 01:16:42;;;;;;;16.98;14.48;;;11.60;99.90;;;;;;4991888;28;20054;-73
2022/05/07 01:19:08;;;;;;;15.93;14.27;;;11.70;99.90;;;;;;4992157;28;20378;-73
2022/05/07 01:21:33;;;;;;;15.18;12.70;;;11.70;99.90;;;;;;4991745;28;20038;-73
2022/05/07 01:23:59;;;;;;;15.40;13.80;;;11.60;99.90;;;;;;4992051;28;20041;-73
2022/05/07 01:26:26;;;;;;;15.13;13.60;;;11.60;99.90;;;;;;4992463;28;20042;-73
2022/05/07 01:28:58;;;;;;;17.17;13.88;;;11.60;99.90;;;;;;4991938;28;20042;-73
2022/05/07 01:31:26;;;;;;;15.00;13.50;;;11.60;99.90;;;;;;4992794;28;20057;-74
2022/05/07 01:33:52;;;;;;;17.35;14.73;;;11.60;99.90;;;;;;4992981;28;20076;-74
2022/05/07 01:36:19;;;;;;;19.17;15.45;;;11.60;99.90;;;;;;4991615;28;20050;-73
2022/05/07 01:38:45;;;;;;;19.23;16.23;;;11.60;99.90;;;;;;4992714;28;20389;-73
2022/05/07 01:41:11;;;;;;;17.85;15.85;;;11.60;99.90;;;;;;4988839;28;20069;-74
2022/05/07 01:43:36;;;;;;;17.98;16.10;;;11.70;99.90;;;;;;4991404;28;20042;-74
2022/05/07 01:46:03;;;;;;;19.38;16.20;;;11.70;99.90;;;;;;4991430;28;20049;-74
2022/05/07 01:48:29;;;;;;;19.42;16.05;;;11.70;99.90;;;;;;4992566;28;20077;-74
2022/05/07 01:50:55;;;;;;;19.10;17.10;;;11.80;99.90;;;;;;4990302;28;20117;-73
2022/05/07 01:53:22;;;;;;;20.08;18.08;;;11.70;99.90;;;;;;4992570;28;20150;-73
2022/05/07 01:55:47;;;;;;;21.67;18.85;;;11.80;99.90;;;;;;4991269;28;20049;-73
2022/05/07 01:58:14;;;;;;;20.33;18.27;;;11.80;99.90;;;;;;4991436;28;20038;-74
2022/05/07 02:00:42;;;;;;;24.25;19.67;;;11.80;99.90;;;;;;4987583;28;20730;-74
2022/05/07 02:03:09;;;;;;;20.85;18.65;;;11.90;99.90;;;;;;4990172;28;20132;-74
2022/05/07 02:05:35;;;;;;;23.55;21.05;;;11.90;99.90;;;;;;4989305;28;20042;-73
2022/05/07 02:08:02;;;;;;;29.17;20.50;;;11.90;99.90;;;;;;4989294;28;20053;-74
2022/05/07 02:10:28;;;;;;;25.00;22.15;;;12.00;99.90;;;;;;4989859;28;20519;-73
2022/05/07 02:12:54;;;;;;;25.77;22.88;;;12.00;99.90;;;;;;4989191;28;20034;-73
2022/05/07 02:15:20;;;;;;;28.27;23.65;;;12.00;99.90;;;;;;4990179;28;20115;-73
2022/05/07 02:17:45;;;;;;;24.45;21.80;;;12.00;99.90;;;;;;4989045;28;20093;-74
2022/05/07 02:20:11;;;;;;;25.33;21.17;;;12.10;99.90;;;;;;4990694;28;20055;-74
2022/05/07 02:22:37;;;;;;;28.33;22.55;;;12.10;99.90;;;;;;4991150;28;20038;-73
2022/05/07 02:25:04;;;;;;;26.92;23.35;;;12.20;99.90;;;;;;4990736;28;20088;-73
2022/05/07 02:27:29;;;;;;;28.25;25.33;;;12.20;99.90;;;;;;4990921;28;20399;-73
2022/05/07 02:29:55;;;;;;;26.85;23.95;;;12.20;99.90;;;;;;4990715;28;20129;-73
2022/05/07 02:32:20;;;;;;;28.63;25.30;;;12.20;99.90;;;;;;4990830;28;20041;-74
2022/05/07 02:34:46;;;;;;;28.70;24.98;;;12.30;99.90;;;;;;4990914;28;20065;-74
2022/05/07 02:37:12;;;;;;;27.83;24.75;;;12.30;99.90;;;;;;4990562;28;20042;-73
2022/05/07 02:39:38;;;;;;;30.85;26.10;;;12.30;99.90;;;;;;4995489;28;20062;-74
2022/05/07 02:44:49;;;;;;;30.35;26.17;;;12.40;99.90;;;;;;4994197;28;20121;-74
2022/05/07 02:47:14;;;;;;;28.88;25.50;;;12.30;99.90;;;;;;4994861;28;20568;-74
2022/05/07 02:49:40;;;;;;;29.45;26.35;;;12.40;99.90;;;;;;4994374;28;20061;-73
2022/05/07 02:52:06;;;;;;;29.23;26.13;;;12.40;99.90;;;;;;5007218;23;20089;-72
2022/05/07 02:54:32;;;;;;;26.75;24.10;;;12.40;99.90;;;;;;4976892;28;20066;-72
2022/05/07 02:56:58;;;;;;;29.50;26.10;;;12.40;99.90;;;;;;4975002;28;20035;-72
2022/05/07 02:59:24;;;;;;;27.75;24.25;;;12.40;99.90;;;;;;4975663;28;20050;-72
2022/05/07 03:01:49;;;;;;;27.90;24.65;;;12.40;99.90;;;;;;4974980;28;20034;-72
2022/05/07 03:04:15;;;;;;;27.05;24.00;;;12.40;99.90;;;;;;4975232;28;20038;-72
2022/05/07 03:06:41;;;;;;;30.25;26.92;;;12.40;99.90;;;;;;4975099;28;20405;-72
2022/05/07 03:09:07;;;;;;;28.92;25.55;;;12.40;99.90;;;;;;4975356;28;20050;-72
2022/05/07 03:11:34;;;;;;;26.27;23.58;;;12.40;99.90;;;;;;4974829;28;20057;-72
2022/05/07 03:14:03;;;;;;;26.17;23.58;;;12.30;99.90;;;;;;4973798;28;20379;-72
2022/05/07 03:16:30;;;;;;;28.02;24.40;;;12.30;99.90;;;;;;4973570;28;20045;-73
2022/05/07 03:18:55;;;;;;;25.48;22.83;;;12.30;99.90;;;;;;4973498;28;20046;-72
2022/05/07 03:21:21;;;;;;;27.50;24.67;;;12.40;99.90;;;;;;4974833;28;20409;-72
2022/05/07 03:23:47;;;;;;;28.52;24.80;;;12.40;99.90;;;;;;4975974;28;20073;-72
2022/05/07 03:26:13;;;;;;;28.52;25.52;;;12.30;99.90;;;;;;4967050;28;20408;-72
2022/05/07 03:28:39;;;;;;;28.85;25.80;;;12.30;99.90;;;;;;4962717;28;20062;-73
2022/05/07 03:31:05;;;;;;;36.03;26.98;;;12.30;99.90;;;;;;4965810;28;20070;-72
2022/05/07 03:33:32;;;;;;;27.17;21.42;;;12.30;99.90;;;;;;4967044;28;20043;-72
2022/05/07 03:35:58;;;;;;;24.40;21.83;;;12.30;99.90;;;;;;4965307;28;20126;-72
2022/05/07 03:38:23;;;;;;;23.90;21.48;;;12.30;99.90;;;;;;4965754;28;20043;-72
2022/05/07 03:40:50;;;;;;;27.20;22.58;;;12.30;99.90;;;;;;4967159;28;20047;-72
2022/05/07 03:43:16;;;;;;;25.08;21.77;;;12.20;99.90;;;;;;4964505;28;20035;-72
2022/05/07 03:45:42;;;;;;;24.08;21.20;;;12.20;99.90;;;;;;4964722;28;20049;-72
2022/05/07 03:48:09;;;;;;;25.15;21.17;;;12.20;99.90;;;;;;4965858;28;20039;-72
2022/05/07 03:50:35;;;;;;;27.17;24.27;;;12.20;99.90;;;;;;4962089;28;20046;-72
2022/05/07 03:55:45;;;;;;;24.75;21.77;;;12.20;99.90;;;;;;4974452;28;20038;-72
2022/05/07 03:58:11;;;;;;;24.83;22.15;;;12.10;99.90;;;;;;4974190;28;20039;-72
2022/05/07 04:00:40;;;;;;;23.63;21.08;;;12.10;99.90;;;;;;4974203;28;20049;-72
2022/05/07 04:03:05;;;;;;;24.27;21.88;;;12.10;99.90;;;;;;4974281;28;20517;-72
2022/05/07 04:05:31;;;;;;;30.20;22.85;;;12.10;99.90;;;;;;4974105;28;20041;-72
2022/05/07 04:07:57;;;;;;;24.90;21.85;;;12.10;99.90;;;;;;4974384;28;20453;-72
2022/05/07 04:10:23;;;;;;;28.25;25.27;;;12.10;99.90;;;;;;4974200;28;20065;-73
2022/05/07 04:12:51;;;;;;;31.08;27.70;;;12.10;99.90;;;;;;4972482;28;20050;-72
2022/05/07 04:15:20;;;;;;;33.78;28.42;;;12.10;99.90;;;;;;4973999;28;20075;-71
2022/05/07 04:17:46;;;;;;;30.40;27.10;;;12.10;99.90;;;;;;4974781;28;20089;-71
2022/05/07 04:20:12;;;;;;;30.67;27.48;;;12.10;99.90;;;;;;4973759;28;20070;-72
2022/05/07 04:22:38;;;;;;;30.02;26.73;;;12.20;99.90;;;;;;4974667;28;20054;-71
2022/05/07 04:25:08;;;;;;;28.30;25.05;;;12.20;99.90;;;;;;4973774;28;20042;-71
2022/05/07 04:27:34;;;;;;;28.58;25.67;;;12.20;99.90;;;;;;4971264;28;20054;-71
2022/05/07 04:30:00;;;;;;;27.67;24.80;;;12.20;99.90;;;;;;4973412;28;20121;-72
2022/05/07 04:32:27;;;;;;;32.05;27.48;;;12.10;99.90;;;;;;4973433;28;20039;-72
2022/05/07 04:34:53;;;;;;;27.95;24.98;;;12.10;99.90;;;;;;4981805;28;20038;-72
2022/05/07 04:37:19;;;;;;;30.95;27.65;;;12.10;99.90;;;;;;4974452;28;20524;-72
2022/05/07 04:39:47;;;;;;;29.90;26.77;;;12.20;99.90;;;;;;4973312;28;20046;-72
2022/05/07 04:42:13;;;;;;;32.15;28.10;;;12.20;99.90;;;;;;4973227;28;20147;-72
2022/05/07 04:44:38;;;;;;;31.38;27.33;;;12.20;99.90;;;;;;4974529;28;20079;-72
2022/05/07 04:47:05;;;;;;;31.15;27.90;;;12.30;99.90;;;;;;4973388;28;20129;-72
2022/05/07 04:49:32;;;;;;;33.22;27.27;;;12.30;99.90;;;;;;4973999;28;20057;-72
2022/05/07 04:51:58;;;;;;;32.15;28.42;;;12.30;99.90;;;;;;4971554;28;20047;-72
2022/05/07 04:54:24;;;;;;;32.28;28.40;;;12.30;99.90;;;;;;4973051;28;20400;-72
2022/05/07 04:56:51;;;;;;;33.25;27.55;;;12.40;99.90;;;;;;4974025;28;20046;-72
2022/05/07 04:59:18;;;;;;;31.92;28.52;;;12.50;99.90;;;;;;4973156;28;20551;-72
2022/05/07 05:01:44;;;;;;;30.60;27.23;;;12.50;99.90;;;;;;4971867;28;20377;-72
2022/05/07 05:04:10;;;;;;;30.10;26.88;;;12.50;99.90;;;;;;4972858;28;20118;-72
2022/05/07 05:06:37;;;;;;;31.13;27.63;;;12.60;99.90;;;;;;4973131;28;20393;-72
2022/05/07 05:09:07;;;;;;;30.75;27.55;;;12.60;99.90;;;;;;4973135;28;20465;-72
2022/05/07 05:11:37;;;;;;;31.80;28.45;;;12.60;99.90;;;;;;4972548;28;20034;-72
2022/05/07 05:16:47;;;;;;;29.38;26.38;;;12.70;99.90;;;;;;4973118;28;20404;-72
2022/05/07 05:19:13;;;;;;;35.28;28.13;;;12.70;99.90;;;;;;4964333;28;20043;-72
2022/05/07 05:21:38;;;;;;;30.52;27.02;;;12.70;99.90;;;;;;4963765;28;20039;-73
2022/05/07 05:24:04;;;;;;;31.52;28.13;;;12.70;99.90;;;;;;4961353;28;20089;-73
2022/05/07 05:26:30;;;;;;;32.00;28.23;;;12.80;99.90;;;;;;4965191;28;20512;-72
2022/05/07 05:28:56;;;;;;;36.40;29.83;;;12.80;99.90;;;;;;4963536;28;20061;-72
2022/05/07 05:31:23;;;;;;;37.85;30.17;;;12.80;99.90;;;;;;4960868;28;20509;-72
2022/05/07 05:33:49;;;;;;;32.88;29.33;;;12.80;99.90;;;;;;4964030;28;20129;-72
2022/05/07 05:36:14;;;;;;;32.97;29.38;;;12.80;99.90;;;;;;4963314;28;20564;-72
2022/05/07 05:38:40;;;;;;;33.20;29.60;;;12.90;99.90;;;;;;4962489;28;20486;-72
2022/05/07 05:41:06;;;;;;;37.67;29.48;;;12.90;99.90;;;;;;4947790;28;20799;-73
2022/05/07 05:43:32;;;;;;;35.13;29.60;;;12.90;99.90;;;;;;4963654;28;20563;-73
2022/05/07 05:45:59;;;;;;;32.58;29.27;;;12.90;99.90;;;;;;4962414;28;20513;-73
2022/05/07 05:48:29;;;;;;;33.78;28.77;;;13.00;99.90;;;;;;4964141;28;20035;-72
2022/05/07 05:50:55;;;;;;;33.72;29.45;;;13.10;99.90;;;;;;4962907;28;20167;-72
2022/05/07 05:53:20;;;;;;;33.45;29.92;;;13.10;99.90;;;;;;4967714;28;20039;-72
2022/05/07 05:55:47;;;;;;;34.38;30.60;;;13.20;99.90;;;;;;4972202;28;20535;-72
2022/05/07 05:58:13;;;;;;;34.85;30.88;;;13.20;99.90;;;;;;4972413;28;20051;-74
2022/05/07 06:00:39;;;;;;;33.95;29.48;;;13.30;99.90;;;;;;4969935;28;20069;-74
2022/05/07 06:03:05;;;;;;;34.42;29.38;;;13.30;99.90;;;;;;4967799;28;20672;-74
2022/05/07 06:05:30;;;;;;;31.73;27.48;;;13.40;99.90;;;;;;4951033;29;20118;-74
2022/05/07 06:07:56;;;;;;;30.70;27.25;;;13.40;99.90;;;;;;4950768;29;20476;-74
2022/05/07 06:10:22;;;;;;;33.85;30.17;;;13.40;99.90;;;;;;4950716;29;20490;-74
2022/05/07 06:12:47;;;;;;;35.25;29.05;;;13.50;99.90;;;;;;4950607;28;20098;-74
2022/05/07 06:15:13;;;;;;;32.30;28.20;;;13.60;99.90;;;;;;4950752;29;20417;-74
2022/05/07 06:17:38;;;;;;;32.35;29.05;;;13.60;99.90;;;;;;4950840;29;20546;-74
2022/05/07 06:20:05;;;;;;;30.35;26.95;;;13.70;99.90;;;;;;4951524;29;20042;-74
2022/05/07 06:22:31;;;;;;;31.65;27.35;;;13.90;99.90;;;;;;4952440;29;20074;-74
2022/05/07 06:27:40;;;;;;;31.23;26.35;;;14.10;99.90;;;;;;4952534;29;20078;-74
2022/05/07 06:30:06;;;;;;;30.17;26.35;;;14.20;99.90;;;;;;4952228;28;20552;-74
2022/05/07 06:32:37;;;;;;;30.58;27.17;;;14.30;99.90;;;;;;4971413;28;20046;-74
2022/05/07 06:35:04;;;;;;;30.10;25.23;;;14.40;99.90;;;;;;4971666;28;20391;-74
2022/05/07 06:37:35;;;;;;;29.20;26.15;;;14.50;99.90;;;;;;4971199;28;20117;-74
2022/05/07 06:40:03;;;;;;;31.83;24.73;;;14.60;99.90;;;;;;4972535;28;20058;-74
2022/05/07 06:42:28;;;;;;;31.92;23.73;;;14.60;99.90;;;;;;4971064;28;20042;-74
2022/05/07 06:44:54;;;;;;;28.88;23.30;;;14.70;99.90;;;;;;4971644;28;20077;-74
2022/05/07 06:47:20;;;;;;;27.80;24.95;;;14.80;99.90;;;;;;4972491;28;20049;-74
2022/05/07 06:49:46;;;;;;;27.08;24.05;;;14.90;99.90;;;;;;4970966;28;20043;-74
2022/05/07 06:52:12;;;;;;;29.15;23.27;;;14.90;99.90;;;;;;4970923;28;20050;-74
2022/05/07 06:54:37;;;;;;;24.73;21.38;;;14.90;99.90;;;;;;4971254;28;20050;-74
2022/05/07 06:57:04;;;;;;;28.60;22.33;;;14.90;99.90;;;;;;4971140;28;20043;-74
2022/05/07 06:59:33;;;;;;;25.17;22.55;;;14.90;99.90;;;;;;4970947;28;20088;-74
2022/05/07 07:01:59;;;;;;;25.00;21.13;;;14.90;99.90;;;;;;4971321;28;20118;-74
2022/05/07 07:04:25;;;;;;;26.27;20.17;;;15.10;99.90;;;;;;4972388;28;20556;-74
2022/05/07 07:06:51;;;;;;;20.30;17.70;;;15.20;99.90;;;;;;4971090;28;20050;-74
2022/05/07 07:09:18;;;;;;;25.83;19.02;;;15.20;99.90;;;;;;4971224;28;20042;-74
2022/05/07 07:11:44;;;;;;;23.00;17.75;;;15.20;99.90;;;;;;4971058;28;20051;-74
2022/05/07 07:14:10;;;;;;;22.02;17.73;;;15.30;99.90;;;;;;4971621;28;20058;-74
2022/05/07 07:16:35;;;;;;;22.00;17.98;;;15.40;99.90;;;;;;4971230;28;20051;-74
2022/05/07 07:19:01;;;;;;;21.20;17.55;;;15.50;99.90;;;;;;4971414;28;20126;-73
2022/05/07 07:21:27;;;;;;;24.38;17.55;;;15.50;99.90;;;;;;4972498;28;20035;-73
2022/05/07 07:23:52;;;;;;;22.77;16.65;;;15.50;99.90;;;;;;4972830;28;20049;-74
2022/05/07 07:26:18;;;;;;;19.27;15.60;;;15.50;99.90;;;;;;4974523;28;20039;-74
2022/05/07 07:28:44;;;;;;;19.45;15.43;;;15.50;99.90;;;;;;4974671;28;20125;-73
2022/05/07 07:31:10;;;;;;;21.38;15.73;;;15.60;99.90;;;;;;4974435;28;20150;-73
2022/05/07 07:33:39;;;;;;;23.05;17.80;;;15.70;99.90;;;;;;4974613;28;20042;-73
2022/05/07 07:36:09;;;;;;;21.77;16.27;;;15.60;99.90;;;;;;4974674;28;20047;-73
2022/05/07 07:38:37;;;;;;;20.60;17.45;;;15.70;99.90;;;;;;4975071;28;20050;-73
2022/05/07 07:41:03;;;;;;;22.58;16.13;;;15.70;99.90;;;;;;4974482;28;20034;-73
2022/05/07 07:43:29;;;;;;;18.65;14.68;;;15.80;99.90;;;;;;4974553;28;20043;-73
2022/05/07 07:48:39;;;;;;;16.67;13.15;;;16.00;99.90;;;;;;4974758;28;20046;-73
2022/05/07 07:51:06;;;;;;;17.27;13.20;;;16.00;99.90;;;;;;4973712;28;20150;-73
2022/05/07 07:53:33;;;;;;;17.60;12.52;;;16.00;99.90;;;;;;4974731;28;20038;-73
2022/05/07 07:55:58;;;;;;;17.98;13.52;;;15.90;99.90;;;;;;4974620;28;20042;-74
2022/05/07 07:58:24;;;;;;;19.40;13.50;;;15.90;99.90;;;;;;4975586;28;20039;-73
2022/05/07 08:00:53;;;;;;;15.70;13.20;;;15.90;99.90;;;;;;4974429;28;20053;-73
2022/05/07 08:03:20;;;;;;;17.55;13.00;;;16.00;99.90;;;;;;4975331;28;20038;-73
2022/05/07 08:05:52;;;;;;;22.08;14.45;;;16.00;99.90;;;;;;4974333;28;20045;-73
2022/05/07 08:13:49;;;;;;;22.17;15.65;;;16.60;99.90;;;;;;4974259;28;20047;-73
2022/05/07 08:16:19;;;;;;;19.95;15.40;;;16.80;99.90;;;;;;4974313;28;20046;-73
2022/05/07 08:18:46;;;;;;;19.77;15.63;;;17.00;99.90;;;;;;4974330;28;20482;-73
2022/05/07 08:21:12;;;;;;;20.08;15.05;;;17.20;99.90;;;;;;4973879;28;20057;-73
2022/05/07 08:23:38;;;;;;;20.65;15.35;;;17.40;99.90;;;;;;4973981;28;20050;-73
2022/05/07 08:26:06;;;;;;;22.98;16.02;;;17.50;99.90;;;;;;4974083;28;20199;-73
2022/05/07 08:28:33;;;;;;;18.25;15.23;;;17.70;99.90;;;;;;4974027;28;20047;-73
2022/05/07 08:31:00;;;;;;;20.75;15.48;;;17.80;99.90;;;;;;4973410;28;20050;-73
2022/05/07 08:33:26;;;;;;;20.27;16.33;;;17.90;99.90;;;;;;4974059;28;20035;-72
2022/05/07 08:35:52;;;;;;;23.08;17.10;;;17.90;99.90;;;;;;4972954;28;20054;-73
2022/05/07 08:38:19;;;;;;;20.67;15.98;;;17.90;99.90;;;;;;4974969;28;20043;-72
2022/05/07 08:40:45;;;;;;;21.92;17.00;;;17.90;99.90;;;;;;4978297;28;20122;-72
2022/05/07 08:43:10;;;;;;;22.50;17.40;;;17.90;99.90;;;;;;4979163;28;20070;-72
2022/05/07 08:45:39;;;;;;;19.88;17.25;;;18.00;99.90;;;;;;4978814;28;20049;-73
2022/05/07 08:48:05;;;;;;;24.13;17.60;;;18.00;99.90;;;;;;4977555;28;20094;-72
2022/05/07 08:50:31;;;;;;;22.52;18.10;;;17.90;99.90;;;;;;4960757;28;20058;-72
2022/05/07 08:52:57;;;;;;;21.90;18.23;;;17.90;99.90;;;;;;4976372;28;20386;-72
2022/05/07 08:55:23;;;;;;;23.52;19.27;;;17.90;99.90;;;;;;4973626;28;20058;-72
2022/05/07 08:57:50;;;;;;;24.52;19.33;;;17.80;99.90;;;;;;4973247;28;20046;-72
2022/05/07 09:00:23;;;;;;;25.52;19.50;;;17.70;99.90;;;;;;4973154;28;20061;-72
2022/05/07 09:02:55;;;;;;;22.42;18.75;;;17.70;99.90;;;;;;4973371;28;20053;-72
2022/05/07 09:05:22;;;;;;;25.63;18.30;;;17.70;99.90;;;;;;4974414;28;20059;-73
2022/05/07 09:07:58;;;;;;;24.38;19.50;;;17.70;99.90;;;;;;4973273;28;20516;-72
2022/05/07 09:10:29;;;;;;;22.83;18.10;;;17.70;99.90;;;;;;4972780;28;20047;-71
2022/05/07 09:13:00;;;;;;;24.17;18.67;;;17.80;99.90;;;;;;4973139;28;20045;-72
2022/05/07 09:15:26;;;;;;;25.42;18.58;;;17.80;99.90;;;;;;4974191;28;20054;-72
2022/05/07 09:17:51;;;;;;;24.63;19.00;;;17.80;99.90;;;;;;4974104;28;20051;-72
2022/05/07 09:20:18;;;;;;;23.13;18.13;;;17.80;99.90;;;;;;4973842;28;20125;-72
2022/05/07 09:22:56;;;;;;;26.48;18.67;;;17.90;99.90;;;;;;4974000;28;20545;-73
2022/05/07 09:25:23;;;;;;;22.10;18.83;;;18.00;99.90;;;;;;4973106;28;20043;-73
2022/05/07 09:27:54;;;;;;;28.00;18.63;;;17.90;99.90;;;;;;4972844;28;20097;-72
2022/05/07 09:30:24;;;;;;;26.17;18.83;;;18.00;99.90;;;;;;4972743;28;20078;-73
2022/05/07 09:32:52;;;;;;;24.83;18.77;;;18.00;99.90;;;;;;4972709;28;20054;-72
2022/05/07 09:38:04;;;;;;;24.13;18.98;;;18.10;99.90;;;;;;4972775;28;20054;-71
2022/05/07 09:40:31;;;;;;;23.70;18.88;;;18.10;99.90;;;;;;4956690;28;20042;-72
2022/05/07 09:42:57;;;;;;;24.77;19.33;;;18.20;99.90;;;;;;4972028;28;20041;-72
2022/05/07 09:45:30;;;;;;;26.65;19.13;;;18.20;99.90;;;;;;4973073;28;20126;-73
2022/05/07 09:47:57;;;;;;;25.35;19.20;;;18.30;99.90;;;;;;4972178;28;20039;-73
2022/05/07 09:50:25;;;;;;;26.10;19.83;;;18.30;99.90;;;;;;4972219;28;20047;-72
2022/05/07 09:57:30;;;;;;;30.20;20.05;;;18.30;99.90;;;;;;4972113;28;20078;-72
2022/05/07 09:58:29;;;;;;;24.98;19.75;;;18.50;99.90;;;;;;4972151;28;19922;-72
2022/05/07 10:01:00;;;;;;;25.95;18.88;;;18.60;99.90;;;;;;4972023;28;20089;-73
2022/05/07 10:04:06;;;;;;;21.40;18.38;;;18.70;99.90;;;;;;4958154;28;20043;-73
2022/05/07 10:06:58;;;;;;;25.63;19.23;;;18.80;99.90;;;;;;4951190;29;20782;-73
2022/05/07 10:09:54;;;;;;;26.65;19.83;;;18.90;99.90;;;;;;4951123;29;20050;-71
2022/05/07 10:12:21;;;;;;;26.20;20.42;;;19.00;99.90;;;;;;4950931;29;20031;-71
2022/05/07 10:14:47;;;;;;;24.08;20.30;;;19.00;99.90;;;;;;4951041;29;20039;-71
2022/05/07 10:17:14;;;;;;;27.08;20.77;;;19.10;99.90;;;;;;4950861;29;20126;-71
2022/05/07 10:19:49;;;;;;;28.42;20.25;;;19.20;99.90;;;;;;4952035;28;20087;-71
2022/05/07 10:22:25;;;;;;;27.98;20.13;;;19.30;99.90;;;;;;4952596;29;20130;-71
2022/05/07 10:25:09;;;;;;;24.65;21.38;;;19.40;99.90;;;;;;4952656;29;20040;-71
2022/05/07 10:27:43;;;;;;;26.42;21.10;;;19.50;99.90;;;;;;4953845;29;20079;-71
2022/05/07 10:30:21;;;;;;;28.55;21.42;;;19.60;99.90;;;;;;4952417;29;20134;-71
2022/05/07 10:33:01;;;;;;;24.35;20.20;;;19.60;99.90;;;;;;4952480;29;20134;-71
2022/05/07 10:35:41;;;;;;;24.90;21.75;;;19.70;99.90;;;;;;4952553;29;20039;-71
2022/05/07 10:38:15;;;;;;;25.17;21.25;;;19.80;99.90;;;;;;4952332;29;20047;-71
2022/05/07 10:41:18;;;;;;;33.50;22.60;;;19.70;99.90;;;;;;4964520;28;20121;-71
2022/05/07 10:43:47;;;;;;;;;;;19.70;99.90;;;;;;4965516;28;20047;-72
2022/05/07 10:46:21;;;;;;;29.35;23.27;;;19.70;99.90;;;;;;4952778;28;20017;-71
2022/05/07 10:48:52;;;;;;;24.15;21.55;;;19.70;99.90;;;;;;4970811;28;20047;-72
2022/05/07 10:51:21;;;;;;;25.67;22.20;;;19.70;99.90;;;;;;4970871;28;20062;-71
2022/05/07 10:53:49;;;;;;;26.23;21.77;;;19.80;99.90;;;;;;4969645;28;20043;-72
2022/05/07 10:56:20;;;;;;;24.40;21.85;;;19.90;99.90;;;;;;4972854;28;20165;-72
2022/05/07 10:58:47;;;;;;;24.48;20.90;;;20.10;99.90;;;;;;4972390;28;20039;-72
2022/05/07 11:01:13;;;;;;;23.90;21.38;;;20.20;99.90;;;;;;4976315;28;20034;-72
2022/05/07 11:03:38;;;;;;;23.25;20.75;;;20.20;99.90;;;;;;4975210;28;20043;-72
2022/05/07 11:06:04;;;;;;;28.42;23.58;;;20.40;99.90;;;;;;4976487;28;20039;-72
2022/05/07 11:08:30;;;;;;;25.25;22.35;;;20.40;99.90;;;;;;4974662;28;20054;-72
2022/05/07 11:11:10;;;;;;;24.92;22.30;;;20.50;99.90;;;;;;4974551;28;20039;-72
2022/05/07 11:13:45;;;;;;;24.90;20.90;;;20.60;99.90;;;;;;4972830;28;20046;-72
2022/05/07 11:16:11;;;;;;;22.13;19.25;;;20.60;99.90;;;;;;4971806;28;20074;-72
2022/05/07 11:18:40;;;;;;;21.63;19.02;;;20.80;99.90;;;;;;4974147;28;20046;-72
2022/05/07 11:21:06;;;;;;;25.13;21.17;;;20.90;99.70;;;;;;4972648;28;20078;-72
2022/05/07 11:23:36;;;;;;;23.73;21.00;;;20.90;97.90;;;;;;4973241;28;20440;-72
2022/05/07 11:26:16;;;;;;;23.95;20.65;;;20.80;98.10;;;;;;4972816;28;20041;-72
2022/05/07 11:28:44;;;;;;;22.80;20.30;;;20.90;98.70;;;;;;4974212;28;20704;-73
2022/05/07 11:31:11;;;;;;;22.00;18.95;;;21.00;98.50;;;;;;4974563;28;20478;-73
2022/05/07 11:33:38;;;;;;;20.08;17.98;;;21.10;98.40;;;;;;4974954;28;20043;-72
2022/05/07 11:36:09;;;;;;;27.60;19.38;;;21.30;99.40;;;;;;4974499;28;20042;-72
2022/05/07 11:38:36;;;;;;;21.67;19.30;;;21.50;93.50;;;;;;4973657;28;20090;-72
2022/05/07 11:41:17;;;;;;;22.98;19.88;;;21.60;93.90;;;;;;4973691;28;20053;-73
2022/05/07 11:46:33;;;;;;;29.85;20.55;;;21.90;95.30;;;;;;4975933;28;20047;-72
2022/05/07 11:49:05;;;;;;;22.60;19.05;;;22.10;96.40;;;;;;4974951;28;20058;-72
2022/05/07 11:51:31;;;;;;;22.48;18.90;;;22.40;86.60;;;;;;4973992;28;20050;-72
2022/05/07 11:54:07;;;;;;;21.08;18.88;;;22.40;89.80;;;;;;4973636;28;20046;-72
2022/05/07 11:56:43;;;;;;;23.60;19.52;;;22.40;86.90;;;;;;4973447;28;20094;-72
2022/05/07 11:59:09;;;;;;;22.08;19.77;;;22.30;88.30;;;;;;4973642;28;20046;-72
2022/05/07 12:01:34;;;;;;;21.52;19.27;;;22.40;85.40;;;;;;4973275;28;20046;-72
2022/05/07 12:04:10;;;;;;;19.55;17.27;;;22.40;89.30;;;;;;4972346;28;20158;-72
2022/05/07 12:06:36;;;;;;;20.67;18.27;;;22.60;85.50;;;;;;4969793;28;20054;-73
2022/05/07 12:09:13;;;;;;;25.75;23.10;;;22.70;86.20;;;;;;4971797;28;20043;-73
2022/05/07 12:11:40;;;;;;;20.58;16.73;;;22.80;86.20;;;;;;4962594;28;20051;-73
2022/05/07 12:14:06;;;;;;;18.38;16.38;;;22.70;83.10;;;;;;4972848;28;20066;-73
2022/05/07 12:19:29;;;;;;;18.80;16.13;;;22.70;81.90;;;;;;4972641;28;20493;-73
2022/05/07 12:30:08;;;;;;;19.15;17.15;;;22.20;86.60;;;;;;4971937;28;20052;-73
2022/05/07 12:32:34;;;;;;;20.98;16.83;;;22.20;85.90;;;;;;4972568;28;20041;-73
2022/05/07 12:35:00;;;;;;;21.05;17.10;;;22.20;84.50;;;;;;4972499;28;20031;-73
2022/05/07 12:37:25;;;;;;;22.55;17.42;;;22.10;87.90;;;;;;4972345;28;20458;-73
2022/05/07 12:39:51;;;;;;;23.38;18.00;;;22.10;83.70;;;;;;4971975;28;20078;-73
2022/05/07 12:42:18;;;;;;;23.08;17.10;;;22.30;90.80;;;;;;4972356;28;20481;-73
2022/05/07 12:44:44;;;;;;;19.80;17.05;;;22.50;83.50;;;;;;4972866;28;20053;-73
2022/05/07 12:47:11;;;;;;;23.55;16.85;;;22.70;87.40;;;;;;4972822;28;20047;-73
2022/05/07 12:49:37;;;;;;;22.00;17.50;;;22.80;87.10;;;;;;4972575;28;20050;-73
2022/05/07 12:52:03;;;;;;;21.17;18.02;;;22.60;85.00;;;;;;4937591;28;1015143;-73
2022/05/07 12:54:30;;;;;;;21.10;18.10;;;22.40;87.10;;;;;;4972987;28;20054;-73
2022/05/07 12:56:56;;;;;;;22.98;18.10;;;22.50;86.80;;;;;;4972936;28;20081;-73
2022/05/07 12:59:22;;;;;;;20.80;17.58;;;22.50;85.30;;;;;;4973071;28;20075;-73
2022/05/07 13:01:47;;;;;;;20.50;16.90;;;22.50;89.00;;;;;;4973186;28;20436;-73
2022/05/07 13:04:13;;;;;;;21.63;18.05;;;22.30;86.60;;;;;;4973307;28;20054;-73
2022/05/07 13:06:39;;;;;;;26.30;17.92;;;22.30;87.00;;;;;;4974379;28;20047;-73
2022/05/07 13:09:04;;;;;;;22.33;18.23;;;22.20;85.10;;;;;;4972315;28;20181;-73
2022/05/07 13:11:30;;;;;;;26.50;20.48;;;22.10;90.50;;;;;;4973032;28;20053;-73